Dupuy, Canada
Current Conditions -  °F | °C
As of 12:00 PM on Friday 21 Nov 2014 (Local Time) from CYUY Reporting Station
Broken Clouds Broken Clouds  
Wind Chill: -8°   Ceiling: 20000
Heat Index:   Visibility: 15mi
Dew Point: -2°   Wind: 8mph
Humidity: 72%   Direction: 260°W
Pressure: 30.17"   Gusts: NA
Location:  48.83°N, 79.37°W
Report Text: CYUY 211700Z 26007KT 15SM SCT020 BKN200 M15/M19 A3017 RMK SC3CI3 SLP246
Loading
Personal Weather Stations






























Interactive Weather Map New forecast layout! Learn more

10-Day Weather Forecast

Advertisements
Track Severe Weather on mobile